Time;durP1;ratioP1;P1;durP2;ratioP2;P2;SDS_P1;SDS_P2;PMS_P1;PMS_P2;Temp;Humidity;BMP_temperature;BMP_pressure;BME280_temperature;BME280_humidity;BME280_pressure;Samples;Min_cycle;Max_cycle;Signal;HPM_P1;HPM_P2
2023/01/09 00:00:44;;;;;;;7.07;3.25;;;9.20;99.90;;;;;;5034598;28;20041;-67
2023/01/09 00:03:10;;;;;;;6.03;2.88;;;9.10;99.90;;;;;;5090376;22;20040;-68
2023/01/09 00:05:35;;;;;;;5.88;3.08;;;9.10;99.90;;;;;;5074615;28;20035;-67
2023/01/09 00:08:01;;;;;;;6.07;3.30;;;9.20;99.90;;;;;;5073756;28;20031;-67
2023/01/09 00:10:27;;;;;;;7.65;3.50;;;9.10;99.90;;;;;;5073361;28;20081;-67
2023/01/09 00:12:52;;;;;;;6.38;3.85;;;9.00;99.90;;;;;;5073209;28;20501;-68
2023/01/09 00:15:18;;;;;;;4.88;2.88;;;9.00;99.90;;;;;;5073246;28;20024;-68
2023/01/09 00:17:43;;;;;;;3.92;2.90;;;9.00;99.90;;;;;;5074185;28;20039;-68
2023/01/09 00:20:10;;;;;;;6.72;3.30;;;9.00;99.90;;;;;;5073298;28;20020;-68
2023/01/09 00:22:36;;;;;;;8.40;3.97;;;8.90;99.90;;;;;;5074348;28;20024;-68
2023/01/09 00:25:02;;;;;;;4.25;3.17;;;8.80;99.90;;;;;;5073445;28;20021;-67
2023/01/09 00:27:35;;;;;;;7.45;3.20;;;8.80;99.90;;;;;;5073061;28;20024;-68
2023/01/09 00:30:01;;;;;;;4.03;2.88;;;8.90;99.90;;;;;;5074222;28;20021;-68
2023/01/09 00:32:27;;;;;;;5.72;2.85;;;8.90;99.90;;;;;;5074066;28;20020;-67
2023/01/09 00:34:53;;;;;;;6.28;3.10;;;8.90;99.90;;;;;;5073117;28;20025;-67
2023/01/09 00:37:19;;;;;;;4.15;3.13;;;8.90;99.90;;;;;;5074181;28;20035;-67
2023/01/09 00:39:45;;;;;;;4.53;3.03;;;8.80;99.90;;;;;;5073129;28;20016;-67
2023/01/09 00:42:17;;;;;;;6.38;2.83;;;8.80;99.90;;;;;;5072605;28;20052;-67
2023/01/09 00:44:51;;;;;;;4.93;2.70;;;8.70;99.90;;;;;;5074546;28;20016;-67
2023/01/09 00:47:21;;;;;;;5.50;2.95;;;8.70;99.90;;;;;;5073412;28;20036;-67
2023/01/09 00:49:48;;;;;;;5.75;3.90;;;8.70;99.90;;;;;;5072664;28;20032;-67
2023/01/09 00:52:14;;;;;;;3.70;2.78;;;8.70;99.90;;;;;;5072485;28;20044;-67
2023/01/09 00:54:41;;;;;;;5.68;3.75;;;8.70;99.90;;;;;;5074045;28;20503;-67
2023/01/09 00:57:07;;;;;;;4.68;3.38;;;8.70;99.90;;;;;;5073546;28;20154;-67
2023/01/09 00:59:33;;;;;;;6.05;3.10;;;8.70;99.90;;;;;;5072777;28;20039;-67
2023/01/09 01:01:58;;;;;;;7.82;3.67;;;8.80;99.90;;;;;;5072311;28;20020;-67
2023/01/09 01:09:52;;;;;;;4.97;3.30;;;8.80;99.90;;;;;;5073994;28;20105;-68
2023/01/09 01:12:17;;;;;;;4.50;3.15;;;8.70;99.90;;;;;;5073505;28;20017;-67
2023/01/09 01:14:43;;;;;;;11.43;4.72;;;8.70;99.90;;;;;;5072191;28;20025;-67
2023/01/09 01:17:08;;;;;;;7.82;4.18;;;8.70;99.90;;;;;;5072136;28;20032;-68
2023/01/09 01:19:34;;;;;;;10.00;4.55;;;8.60;99.90;;;;;;5073594;28;20028;-68
2023/01/09 01:22:00;;;;;;;6.47;3.88;;;8.70;99.90;;;;;;5072183;28;20081;-68
2023/01/09 01:24:26;;;;;;;5.05;3.33;;;8.80;99.90;;;;;;5072282;28;20116;-68
2023/01/09 01:26:51;;;;;;;12.25;5.03;;;8.90;99.90;;;;;;5073986;28;20035;-68
2023/01/09 01:29:17;;;;;;;6.15;3.25;;;8.90;99.90;;;;;;5073502;28;20099;-68
2023/01/09 01:31:42;;;;;;;6.63;3.10;;;8.90;99.90;;;;;;5073035;28;20016;-68
2023/01/09 01:34:08;;;;;;;4.35;2.70;;;8.80;99.90;;;;;;5071865;28;20460;-68
2023/01/09 01:36:34;;;;;;;5.00;3.22;;;8.80;99.90;;;;;;5073218;28;20032;-68
2023/01/09 01:38:59;;;;;;;4.45;3.22;;;8.90;99.90;;;;;;5073427;28;20036;-68
2023/01/09 01:41:31;;;;;;;5.38;2.90;;;8.90;99.90;;;;;;5072559;28;20063;-68
2023/01/09 01:44:02;;;;;;;7.70;3.42;;;8.90;99.90;;;;;;5073112;28;20397;-68
2023/01/09 01:46:30;;;;;;;8.20;3.78;;;8.90;99.90;;;;;;5071539;28;20028;-68
2023/01/09 01:49:05;;;;;;;3.42;2.60;;;8.90;99.90;;;;;;5073221;28;20032;-68
2023/01/09 01:51:36;;;;;;;7.93;3.58;;;9.00;99.90;;;;;;5072990;28;20028;-68
2023/01/09 01:54:09;;;;;;;3.45;2.20;;;9.00;99.90;;;;;;5073105;28;20024;-68
2023/01/09 01:56:41;;;;;;;4.60;2.47;;;9.00;99.90;;;;;;5073551;28;20024;-68
2023/01/09 01:59:12;;;;;;;3.40;2.40;;;8.90;99.90;;;;;;5072975;28;20029;-68
2023/01/09 02:01:42;;;;;;;4.37;2.77;;;9.00;99.90;;;;;;5072197;28;20435;-67
2023/01/09 02:04:08;;;;;;;2.55;2.10;;;8.90;99.90;;;;;;5073160;28;20282;-68
2023/01/09 02:06:34;;;;;;;5.05;1.75;;;8.90;99.90;;;;;;5072887;28;20028;-67
2023/01/09 02:09:02;;;;;;;1.85;1.35;;;8.90;99.90;;;;;;5072961;28;20021;-67
2023/01/09 02:11:28;;;;;;;1.27;1.13;;;8.80;99.90;;;;;;5072043;28;20025;-67
2023/01/09 02:13:54;;;;;;;1.70;1.02;;;8.80;99.90;;;;;;5072227;28;20118;-67
2023/01/09 02:16:46;;;;;;;1.35;0.82;;;8.70;99.90;;;;;;5072780;28;20037;-68
2023/01/09 02:19:34;;;;;;;2.08;0.60;;;8.70;99.90;;;;;;5072700;28;20112;-67
2023/01/09 02:22:31;;;;;;;1.15;0.70;;;8.60;99.90;;;;;;5072271;28;20032;-68
2023/01/09 02:25:35;;;;;;;0.43;0.40;;;8.60;99.90;;;;;;5071513;28;20073;-68
2023/01/09 02:28:34;;;;;;;1.83;0.60;;;8.60;99.90;;;;;;5071390;28;20063;-67
2023/01/09 02:31:34;;;;;;;0.70;0.45;;;8.60;99.90;;;;;;5071358;28;20029;-67
2023/01/09 02:34:08;;;;;;;0.75;0.38;;;8.50;99.90;;;;;;5001936;28;20137;-67
2023/01/09 02:37:00;;;;;;;1.23;0.40;;;8.40;99.90;;;;;;5072101;28;20031;-68
2023/01/09 02:39:31;;;;;;;1.98;0.32;;;8.30;99.90;;;;;;5072879;28;20145;-68
2023/01/09 02:42:20;;;;;;;0.98;0.40;;;8.30;99.90;;;;;;5071222;28;20028;-67
2023/01/09 02:44:45;;;;;;;0.52;0.30;;;8.30;99.90;;;;;;5072623;28;20051;-67
2023/01/09 02:47:14;;;;;;;3.67;0.70;;;8.30;99.90;;;;;;5072532;28;20476;-67
2023/01/09 02:49:41;;;;;;;0.63;0.40;;;8.20;99.90;;;;;;5071176;28;20090;-67
2023/01/09 02:52:25;;;;;;;0.35;0.30;;;8.20;99.90;;;;;;5072439;28;20024;-67
2023/01/09 02:55:04;;;;;;;0.50;0.20;;;8.20;99.90;;;;;;5071330;28;20491;-67
2023/01/09 02:57:52;;;;;;;0.20;0.20;;;8.30;99.90;;;;;;5073637;28;20024;-67
2023/01/09 03:00:27;;;;;;;0.20;0.20;;;8.30;99.90;;;;;;5074800;28;20021;-67
2023/01/09 03:02:57;;;;;;;0.75;0.45;;;8.30;99.90;;;;;;5074710;28;20054;-68
2023/01/09 03:05:29;;;;;;;0.55;0.28;;;8.30;99.90;;;;;;5076011;28;20043;-68
2023/01/09 03:08:03;;;;;;;1.55;0.40;;;8.30;99.90;;;;;;5074674;28;20033;-68
2023/01/09 03:10:40;;;;;;;0.20;0.13;;;8.30;99.90;;;;;;5075041;28;20508;-68
2023/01/09 03:13:10;;;;;;;0.32;0.30;;;8.30;99.90;;;;;;5075813;28;20498;-68
2023/01/09 03:15:39;;;;;;;1.15;0.60;;;8.30;99.90;;;;;;5075326;28;20124;-68
2023/01/09 03:18:07;;;;;;;0.25;0.17;;;8.20;99.90;;;;;;5074561;28;20035;-68
2023/01/09 03:20:34;;;;;;;0.70;0.47;;;8.20;99.90;;;;;;5075619;28;20029;-68
2023/01/09 03:23:03;;;;;;;2.20;0.52;;;8.30;99.90;;;;;;5075528;28;20028;-67
2023/01/09 03:25:30;;;;;;;0.50;0.28;;;8.20;99.90;;;;;;5075874;28;20052;-68
2023/01/09 03:28:01;;;;;;;0.55;0.40;;;8.20;99.90;;;;;;5075677;28;20021;-68
2023/01/09 03:30:29;;;;;;;0.57;0.57;;;8.30;99.90;;;;;;5074293;28;20527;-68
2023/01/09 03:32:56;;;;;;;0.45;0.43;;;8.20;99.90;;;;;;5075397;28;20056;-68
2023/01/09 03:35:22;;;;;;;1.58;0.63;;;8.30;99.90;;;;;;5075473;28;20025;-68
2023/01/09 03:37:48;;;;;;;0.68;0.40;;;8.30;99.90;;;;;;5074440;28;20025;-67
2023/01/09 03:40:13;;;;;;;0.30;0.30;;;8.20;99.90;;;;;;5075672;28;20026;-67
2023/01/09 03:42:39;;;;;;;0.40;0.40;;;8.20;99.90;;;;;;5075254;28;20032;-67
2023/01/09 03:45:06;;;;;;;0.40;0.20;;;8.30;99.90;;;;;;5075517;28;20523;-67
2023/01/09 03:47:31;;;;;;;0.20;0.20;;;8.40;99.90;;;;;;5075054;28;20028;-67
2023/01/09 03:49:57;;;;;;;0.88;0.50;;;8.40;99.90;;;;;;5074916;28;20055;-67
2023/01/09 03:52:22;;;;;;;0.80;0.40;;;8.30;99.90;;;;;;5073588;28;20031;-67
2023/01/09 03:54:48;;;;;;;0.30;0.30;;;8.30;99.90;;;;;;5075201;28;20021;-67
2023/01/09 03:57:14;;;;;;;0.85;0.20;;;8.20;99.90;;;;;;5073677;28;20031;-67
2023/01/09 03:59:39;;;;;;;0.10;0.10;;;8.30;99.90;;;;;;5075015;28;20111;-70
2023/01/09 04:02:05;;;;;;;0.10;0.10;;;8.20;99.90;;;;;;5073455;28;20111;-70
2023/01/09 04:04:31;;;;;;;0.20;0.10;;;8.10;99.90;;;;;;5074431;28;20034;-70
2023/01/09 04:06:57;;;;;;;0.52;0.17;;;8.00;99.90;;;;;;5074592;28;20104;-70
2023/01/09 04:09:22;;;;;;;0.10;0.10;;;7.90;99.90;;;;;;5073426;28;20167;-70
2023/01/09 04:11:48;;;;;;;0.65;0.20;;;7.90;99.90;;;;;;5073324;28;20020;-67
2023/01/09 04:14:13;;;;;;;0.10;0.10;;;7.90;99.90;;;;;;5073660;28;20543;-67
2023/01/09 04:16:39;;;;;;;0.03;0.03;;;8.00;99.90;;;;;;5073710;28;20025;-67
2023/01/09 04:19:04;;;;;;;0.13;0.08;;;8.00;99.90;;;;;;5075022;28;20037;-68
2023/01/09 04:21:30;;;;;;;0.13;0.13;;;8.00;99.90;;;;;;5073373;28;20021;-68
2023/01/09 04:23:55;;;;;;;0.10;0.10;;;8.00;99.90;;;;;;5074632;28;20078;-68
2023/01/09 04:26:21;;;;;;;0.00;0.00;;;8.00;99.90;;;;;;5073183;28;20059;-68
2023/01/09 04:28:47;;;;;;;0.20;0.10;;;8.00;99.90;;;;;;5072967;28;20030;-68
2023/01/09 04:31:12;;;;;;;0.10;0.10;;;8.00;99.90;;;;;;5074469;28;20028;-69
2023/01/09 04:33:38;;;;;;;0.82;0.25;;;7.90;99.90;;;;;;5074807;28;20028;-68
2023/01/09 04:36:04;;;;;;;1.98;0.28;;;7.90;99.90;;;;;;5074702;28;20052;-68
2023/01/09 04:38:29;;;;;;;1.90;0.10;;;7.90;99.90;;;;;;5072706;28;20082;-68
2023/01/09 04:40:55;;;;;;;1.00;0.30;;;7.80;99.90;;;;;;5073272;28;20027;-68
2023/01/09 04:43:20;;;;;;;0.65;0.10;;;7.90;99.90;;;;;;5074665;28;20039;-68
2023/01/09 04:45:46;;;;;;;0.28;0.10;;;7.90;99.90;;;;;;5074201;28;20032;-68
2023/01/09 04:48:11;;;;;;;0.00;0.00;;;7.90;99.90;;;;;;5073829;28;20032;-68
2023/01/09 04:50:37;;;;;;;0.30;0.28;;;7.90;99.90;;;;;;5072957;28;20588;-68
2023/01/09 04:53:02;;;;;;;0.10;0.10;;;7.90;99.90;;;;;;5072457;28;20419;-68
2023/01/09 04:55:28;;;;;;;0.10;0.10;;;7.90;99.90;;;;;;5073686;28;20060;-68
2023/01/09 04:57:53;;;;;;;0.20;0.10;;;8.00;99.90;;;;;;5072327;28;20035;-68
2023/01/09 05:00:19;;;;;;;1.40;0.30;;;8.00;99.90;;;;;;5072795;28;20016;-68
2023/01/09 05:02:44;;;;;;;0.20;0.20;;;8.00;99.90;;;;;;5072294;28;20024;-68
2023/01/09 05:05:11;;;;;;;0.55;0.22;;;7.90;99.90;;;;;;5072495;28;20066;-68
2023/01/09 05:07:37;;;;;;;0.20;0.10;;;7.90;99.90;;;;;;5072404;28;20467;-68
2023/01/09 05:10:03;;;;;;;0.20;0.13;;;7.80;99.90;;;;;;5072704;28;20064;-68
2023/01/09 05:12:29;;;;;;;0.68;0.45;;;7.90;99.90;;;;;;5073311;28;20107;-68
2023/01/09 05:14:56;;;;;;;3.30;0.40;;;7.90;99.90;;;;;;5072173;28;20111;-68
2023/01/09 05:17:22;;;;;;;0.20;0.10;;;7.80;99.90;;;;;;5072662;28;20051;-68
2023/01/09 05:19:47;;;;;;;3.30;0.40;;;7.80;99.90;;;;;;5071874;28;20472;-68
2023/01/09 05:22:13;;;;;;;0.55;0.15;;;7.80;99.90;;;;;;5073165;28;20021;-68
2023/01/09 05:24:39;;;;;;;0.30;0.20;;;7.70;99.90;;;;;;5073437;28;20021;-68
2023/01/09 05:27:04;;;;;;;0.45;0.10;;;7.80;99.90;;;;;;5072154;28;20028;-68
2023/01/09 05:29:30;;;;;;;0.13;0.10;;;7.70;99.90;;;;;;5073641;28;20021;-68
2023/01/09 05:31:56;;;;;;;0.63;0.10;;;7.70;99.90;;;;;;5073202;28;20031;-68
2023/01/09 05:34:21;;;;;;;0.30;0.30;;;7.70;99.90;;;;;;5073907;28;20025;-68
2023/01/09 05:36:47;;;;;;;0.70;0.38;;;7.70;99.90;;;;;;5073308;28;20024;-68
2023/01/09 05:39:12;;;;;;;0.22;0.10;;;7.60;99.90;;;;;;5073215;28;20077;-68
2023/01/09 05:41:38;;;;;;;0.17;0.10;;;7.60;99.90;;;;;;5073109;28;20025;-68
2023/01/09 05:44:04;;;;;;;0.20;0.20;;;7.60;99.90;;;;;;5072208;28;20045;-68
2023/01/09 05:46:30;;;;;;;2.05;0.30;;;7.50;99.90;;;;;;5071899;28;20141;-68
2023/01/09 05:48:56;;;;;;;0.40;0.20;;;7.60;99.90;;;;;;5073537;28;20024;-68
2023/01/09 05:51:21;;;;;;;0.32;0.30;;;7.60;99.90;;;;;;5072336;28;20031;-69
2023/01/09 05:53:47;;;;;;;0.28;0.20;;;7.50;99.90;;;;;;5073317;28;20031;-69
2023/01/09 05:56:13;;;;;;;0.35;0.20;;;7.60;99.90;;;;;;5073012;28;20056;-68
2023/01/09 05:58:38;;;;;;;1.08;0.40;;;7.60;99.90;;;;;;5071594;28;20028;-68
2023/01/09 06:01:04;;;;;;;0.80;0.22;;;7.60;99.90;;;;;;5072822;28;20043;-68
2023/01/09 06:03:30;;;;;;;0.60;0.20;;;7.50;99.90;;;;;;5092202;22;20036;-64
2023/01/09 06:05:55;;;;;;;0.20;0.20;;;7.50;99.90;;;;;;5072375;28;20100;-64
2023/01/09 06:08:21;;;;;;;0.38;0.20;;;7.50;99.90;;;;;;5072125;28;20031;-64
2023/01/09 06:10:46;;;;;;;0.20;0.10;;;7.50;99.90;;;;;;5071584;28;20071;-64
2023/01/09 06:13:12;;;;;;;0.20;0.20;;;7.50;99.90;;;;;;5072731;28;20025;-64
2023/01/09 06:15:38;;;;;;;0.20;0.20;;;7.50;99.90;;;;;;5072850;28;20027;-64
2023/01/09 06:18:03;;;;;;;0.40;0.20;;;7.60;99.90;;;;;;5071336;28;20085;-64
2023/01/09 06:20:29;;;;;;;0.40;0.28;;;7.50;99.90;;;;;;5071791;28;20035;-64
2023/01/09 06:22:55;;;;;;;0.30;0.30;;;7.50;99.90;;;;;;5071320;28;20096;-64
2023/01/09 06:25:21;;;;;;;1.02;0.47;;;7.60;99.90;;;;;;5072598;28;20056;-63
2023/01/09 06:27:47;;;;;;;0.75;0.20;;;7.50;99.90;;;;;;5073093;28;20063;-63
2023/01/09 06:30:13;;;;;;;1.73;0.47;;;7.40;99.90;;;;;;5072680;28;20046;-63
2023/01/09 06:32:38;;;;;;;2.75;0.20;;;7.40;99.90;;;;;;5072619;28;20382;-63
2023/01/09 06:35:04;;;;;;;0.60;0.20;;;7.30;99.90;;;;;;5075945;28;20039;-63
2023/01/09 06:37:30;;;;;;;0.55;0.30;;;7.30;99.90;;;;;;5075155;28;20025;-63
2023/01/09 06:39:55;;;;;;;0.85;0.40;;;7.30;99.90;;;;;;5076569;28;20060;-63
2023/01/09 06:42:21;;;;;;;0.20;0.20;;;7.30;99.90;;;;;;5076347;28;20017;-63
2023/01/09 06:44:46;;;;;;;0.38;0.28;;;7.40;99.90;;;;;;5076255;28;20047;-63
2023/01/09 06:47:12;;;;;;;0.95;0.50;;;7.40;99.90;;;;;;5075023;28;20082;-63
2023/01/09 06:49:37;;;;;;;0.65;0.40;;;7.30;99.90;;;;;;5074900;28;20025;-63
2023/01/09 06:52:06;;;;;;;1.80;0.47;;;7.40;99.90;;;;;;5076270;28;20021;-63
2023/01/09 06:54:32;;;;;;;3.03;0.35;;;7.40;99.90;;;;;;5074831;28;20043;-63
2023/01/09 06:56:58;;;;;;;2.47;0.95;;;7.40;99.90;;;;;;5074735;28;20016;-63
2023/01/09 06:59:24;;;;;;;2.80;0.60;;;7.50;99.90;;;;;;5074655;28;20025;-63
2023/01/09 07:01:49;;;;;;;2.25;0.50;;;7.60;99.90;;;;;;5075852;28;20029;-63
2023/01/09 07:04:16;;;;;;;1.98;0.40;;;7.60;99.90;;;;;;5076204;28;20028;-63
2023/01/09 07:06:42;;;;;;;2.92;0.40;;;7.60;99.90;;;;;;5075456;28;20070;-63
2023/01/09 07:09:12;;;;;;;3.95;0.55;;;7.60;99.90;;;;;;5074558;28;20028;-63
2023/01/09 07:11:37;;;;;;;0.95;0.38;;;7.50;99.90;;;;;;5074662;28;20035;-63
2023/01/09 07:14:03;;;;;;;2.20;0.70;;;7.60;99.90;;;;;;5075729;28;20021;-63
2023/01/09 07:16:28;;;;;;;1.55;0.40;;;7.50;99.90;;;;;;5075803;28;20024;-63
2023/01/09 07:18:54;;;;;;;0.30;0.15;;;7.50;99.90;;;;;;5074228;28;20025;-63
2023/01/09 07:21:19;;;;;;;1.95;0.45;;;7.50;99.90;;;;;;5074681;28;20013;-63
2023/01/09 07:23:45;;;;;;;2.30;0.52;;;7.50;99.90;;;;;;5075450;28;20029;-63
2023/01/09 07:26:10;;;;;;;1.45;0.38;;;7.60;99.90;;;;;;5074175;28;20021;-63
2023/01/09 07:28:36;;;;;;;0.80;0.35;;;7.70;99.90;;;;;;5075541;28;20032;-63
2023/01/09 07:31:03;;;;;;;3.53;0.68;;;7.60;99.90;;;;;;5075322;28;20024;-63
2023/01/09 07:33:29;;;;;;;2.75;0.50;;;7.60;99.90;;;;;;5074010;28;20024;-66
2023/01/09 07:35:54;;;;;;;1.23;0.35;;;7.70;99.90;;;;;;5074884;28;20021;-66
2023/01/09 07:38:20;;;;;;;2.97;0.45;;;7.80;99.90;;;;;;5074868;28;20066;-66
2023/01/09 07:40:45;;;;;;;1.65;0.40;;;7.80;99.90;;;;;;5074286;28;20020;-66
2023/01/09 07:43:11;;;;;;;2.17;0.73;;;7.90;99.90;;;;;;5074048;28;20054;-66
2023/01/09 07:45:37;;;;;;;1.77;0.85;;;7.90;99.90;;;;;;5073770;28;20479;-66
2023/01/09 07:48:02;;;;;;;2.83;0.45;;;7.90;99.90;;;;;;5074125;28;20037;-66
2023/01/09 07:50:28;;;;;;;3.63;0.50;;;7.90;99.90;;;;;;5073821;28;20056;-66
2023/01/09 07:52:53;;;;;;;2.78;0.38;;;7.90;99.90;;;;;;5074909;28;20095;-66
2023/01/09 07:55:19;;;;;;;3.00;0.50;;;7.90;99.90;;;;;;5074335;28;20024;-66
2023/01/09 07:57:48;;;;;;;3.55;0.52;;;7.80;99.90;;;;;;5074909;28;20029;-66
2023/01/09 08:00:14;;;;;;;1.42;0.43;;;7.70;99.90;;;;;;5073847;28;20016;-66
2023/01/09 08:02:40;;;;;;;0.43;0.30;;;7.70;99.90;;;;;;5074710;28;20086;-66
2023/01/09 08:05:07;;;;;;;9.05;0.60;;;7.70;99.90;;;;;;5075022;28;20025;-66
2023/01/09 08:07:33;;;;;;;0.45;0.30;;;7.60;99.90;;;;;;5074360;28;20029;-66
2023/01/09 08:09:58;;;;;;;4.05;0.60;;;7.60;99.90;;;;;;5074240;28;20032;-66
2023/01/09 08:12:24;;;;;;;2.83;0.63;;;7.60;99.90;;;;;;5073325;28;20069;-66
2023/01/09 08:14:50;;;;;;;2.70;0.40;;;7.60;99.90;;;;;;5073586;28;20025;-64
2023/01/09 08:17:15;;;;;;;2.88;0.50;;;7.70;99.90;;;;;;5074752;28;20028;-64
2023/01/09 08:19:42;;;;;;;1.85;0.40;;;7.70;99.90;;;;;;5074006;28;20109;-64
2023/01/09 08:22:08;;;;;;;2.30;0.43;;;7.70;99.90;;;;;;5074468;28;20040;-64
2023/01/09 08:24:35;;;;;;;2.40;0.68;;;7.70;99.90;;;;;;5073906;28;20021;-64
2023/01/09 08:27:01;;;;;;;1.50;0.20;;;7.80;99.90;;;;;;5073408;28;20032;-64
2023/01/09 08:29:26;;;;;;;4.78;0.90;;;7.80;99.90;;;;;;5074320;28;20016;-64
2023/01/09 08:31:52;;;;;;;1.83;0.60;;;7.80;99.90;;;;;;5072960;28;20021;-64
2023/01/09 08:34:17;;;;;;;3.80;1.27;;;7.80;99.90;;;;;;5074462;28;20032;-64
2023/01/09 08:37:00;;;;;;;1.42;0.30;;;7.80;99.90;;;;;;5074307;28;20103;-64
2023/01/09 08:39:26;;;;;;;7.28;0.47;;;7.90;99.90;;;;;;5073830;28;20033;-65
2023/01/09 08:47:22;;;;;;;2.53;0.50;;;8.00;99.90;;;;;;5075464;28;20050;-65
2023/01/09 08:49:47;;;;;;;0.85;0.32;;;7.90;99.90;;;;;;5074455;28;20021;-65
2023/01/09 08:52:14;;;;;;;1.65;0.22;;;7.90;99.90;;;;;;5073263;28;20082;-65
2023/01/09 08:54:39;;;;;;;3.22;0.52;;;7.90;99.90;;;;;;5072392;28;20119;-65
2023/01/09 08:57:06;;;;;;;2.15;0.47;;;7.90;99.90;;;;;;5073950;28;20100;-65
2023/01/09 08:59:32;;;;;;;0.60;0.30;;;8.00;99.90;;;;;;5074188;28;20399;-65
2023/01/09 09:01:57;;;;;;;1.23;0.40;;;8.10;99.90;;;;;;5072697;28;20124;-65
2023/01/09 09:04:23;;;;;;;2.08;0.60;;;8.20;99.90;;;;;;5072963;28;20021;-65
2023/01/09 09:06:49;;;;;;;3.40;0.43;;;8.10;99.90;;;;;;5074888;28;20040;-65
2023/01/09 09:09:14;;;;;;;1.30;0.50;;;8.10;99.90;;;;;;5074405;28;20040;-66
2023/01/09 09:11:40;;;;;;;2.08;0.25;;;8.20;99.90;;;;;;5074076;28;20032;-65
2023/01/09 09:16:51;;;;;;;0.77;0.60;;;8.20;99.90;;;;;;5075475;28;20047;-65
2023/01/09 09:19:17;;;;;;;2.05;1.17;;;8.30;99.90;;;;;;5074863;28;20029;-65
2023/01/09 09:21:42;;;;;;;2.03;0.35;;;8.30;99.90;;;;;;5074107;28;20027;-64
2023/01/09 09:24:08;;;;;;;1.85;0.20;;;8.40;99.90;;;;;;5071952;28;20111;-64
2023/01/09 09:26:34;;;;;;;0.82;0.28;;;8.40;99.90;;;;;;5073315;28;20047;-64
2023/01/09 09:28:59;;;;;;;1.27;0.40;;;8.40;99.90;;;;;;5073276;28;20108;-64
2023/01/09 09:31:25;;;;;;;0.38;0.25;;;8.30;99.90;;;;;;5072740;28;20052;-64
2023/01/09 09:33:50;;;;;;;0.43;0.28;;;8.20;99.90;;;;;;5071894;28;20032;-64
2023/01/09 09:36:16;;;;;;;0.73;0.30;;;8.20;99.90;;;;;;5071889;28;20028;-64
2023/01/09 09:38:41;;;;;;;1.13;0.40;;;8.20;99.90;;;;;;5073212;28;20042;-64
2023/01/09 09:44:45;;;;;;;0.52;0.40;;;8.30;99.90;;;;;;5073362;28;20032;-64
2023/01/09 09:47:39;;;;;;;0.60;0.35;;;8.30;99.90;;;;;;5072698;28;20391;-64
2023/01/09 09:50:19;;;;;;;1.25;0.43;;;8.40;99.90;;;;;;5073482;28;20532;-65
2023/01/09 09:53:13;;;;;;;0.57;0.57;;;8.30;99.90;;;;;;5072527;28;20021;-65
2023/01/09 09:55:40;;;;;;;0.28;0.10;;;8.40;99.90;;;;;;5072650;28;20088;-65
2023/01/09 09:58:30;;;;;;;2.80;0.28;;;8.40;99.90;;;;;;5072604;28;20092;-65
2023/01/09 10:00:58;;;;;;;0.43;0.25;;;8.40;99.90;;;;;;5073437;28;20036;-65
2023/01/09 10:03:32;;;;;;;1.88;0.30;;;8.40;99.90;;;;;;5073743;28;20024;-65
2023/01/09 10:06:01;;;;;;;1.95;0.30;;;8.40;99.90;;;;;;5073494;28;20024;-65
2023/01/09 10:08:40;;;;;;;2.15;0.60;;;8.50;99.90;;;;;;5076230;28;20035;-65
2023/01/09 10:11:15;;;;;;;3.80;0.30;;;8.50;99.90;;;;;;5077775;28;20047;-65
2023/01/09 10:16:35;;;;;;;1.30;0.30;;;8.50;99.90;;;;;;5078280;28;20548;-65
2023/01/09 10:19:09;;;;;;;3.13;0.45;;;8.70;99.90;;;;;;5076608;28;20032;-65
2023/01/09 10:22:20;;;;;;;0.52;0.20;;;8.70;99.90;;;;;;5077638;28;20099;-65
2023/01/09 10:25:16;;;;;;;1.20;0.30;;;8.70;99.90;;;;;;5077381;28;20451;-65
2023/01/09 10:28:12;;;;;;;1.13;0.35;;;8.60;99.90;;;;;;5076413;28;20016;-65
2023/01/09 10:31:17;;;;;;;0.30;0.20;;;8.60;99.90;;;;;;5077337;28;20035;-65
2023/01/09 10:34:03;;;;;;;2.47;0.35;;;8.60;99.90;;;;;;4989520;28;20065;-65
2023/01/09 10:36:42;;;;;;;2.00;0.20;;;8.60;99.90;;;;;;5077942;28;20020;-65
2023/01/09 10:39:19;;;;;;;1.55;0.30;;;8.60;99.90;;;;;;5077738;28;20036;-65
2023/01/09 10:42:00;;;;;;;1.77;0.43;;;8.70;99.90;;;;;;5077483;28;20091;-65
2023/01/09 10:44:37;;;;;;;2.28;0.38;;;8.70;99.90;;;;;;5076184;28;20044;-65
2023/01/09 10:47:26;;;;;;;1.85;0.30;;;8.70;99.90;;;;;;5077321;28;20017;-65
2023/01/09 10:49:54;;;;;;;0.35;0.20;;;8.70;99.90;;;;;;5077915;28;20020;-65
2023/01/09 10:52:27;;;;;;;1.02;0.40;;;8.60;99.90;;;;;;5077573;28;20027;-65
2023/01/09 10:55:04;;;;;;;0.43;0.38;;;8.60;99.90;;;;;;5077247;28;20027;-65
2023/01/09 10:57:46;;;;;;;0.55;0.43;;;8.60;99.90;;;;;;5075591;28;20032;-65
2023/01/09 11:00:18;;;;;;;2.65;0.70;;;8.70;99.90;;;;;;5078007;28;20027;-65
2023/01/09 11:02:44;;;;;;;1.25;0.45;;;8.70;99.90;;;;;;5077101;28;20090;-65
2023/01/09 11:05:23;;;;;;;3.10;0.40;;;8.70;99.90;;;;;;5076260;28;20060;-65
2023/01/09 11:08:21;;;;;;;3.35;0.52;;;8.80;99.90;;;;;;5076567;28;20133;-65
2023/01/09 11:10:48;;;;;;;1.83;0.38;;;8.80;99.90;;;;;;5076427;28;20025;-65
2023/01/09 11:13:22;;;;;;;0.80;0.30;;;8.80;99.90;;;;;;5075155;28;20020;-65
2023/01/09 11:16:06;;;;;;;1.25;0.43;;;8.90;99.90;;;;;;5075682;28;20032;-66
2023/01/09 11:18:54;;;;;;;0.65;0.30;;;8.90;99.90;;;;;;5074370;28;20123;-65
2023/01/09 11:21:40;;;;;;;1.58;0.43;;;8.90;99.90;;;;;;5063880;28;20024;-65
2023/01/09 11:24:18;;;;;;;0.70;0.43;;;8.90;99.90;;;;;;5076908;28;20013;-65
2023/01/09 11:26:48;;;;;;;0.52;0.20;;;8.90;99.90;;;;;;5075937;28;20052;-65
2023/01/09 11:29:25;;;;;;;1.83;0.40;;;8.90;99.90;;;;;;5076753;28;20028;-65
2023/01/09 11:31:58;;;;;;;2.53;0.50;;;8.90;99.90;;;;;;5076343;28;20020;-65
2023/01/09 11:34:35;;;;;;;1.25;0.30;;;8.90;99.90;;;;;;5075380;28;20066;-65
2023/01/09 11:37:03;;;;;;;3.40;0.30;;;8.90;99.90;;;;;;5076216;28;20078;-65
2023/01/09 11:39:33;;;;;;;1.33;0.45;;;8.90;99.90;;;;;;5076170;28;20050;-65
2023/01/09 11:42:02;;;;;;;3.10;0.32;;;8.80;99.90;;;;;;5076768;28;20024;-65
2023/01/09 11:44:29;;;;;;;5.63;0.40;;;8.80;99.90;;;;;;5075437;28;20020;-65
2023/01/09 11:46:55;;;;;;;0.30;0.30;;;8.90;99.90;;;;;;5074877;28;20027;-66
2023/01/09 11:49:24;;;;;;;1.40;0.50;;;8.80;99.90;;;;;;5074139;28;20028;-66
2023/01/09 11:52:19;;;;;;;6.05;0.40;;;8.90;99.90;;;;;;5074909;28;20032;-66
2023/01/09 11:54:57;;;;;;;0.50;0.28;;;8.90;99.90;;;;;;5075198;28;20066;-66
2023/01/09 11:57:24;;;;;;;1.13;0.35;;;8.90;99.90;;;;;;5075239;28;20027;-66
2023/01/09 11:59:50;;;;;;;0.55;0.20;;;8.90;99.90;;;;;;5073983;28;20031;-66
2023/01/09 12:02:45;;;;;;;0.50;0.28;;;8.80;99.90;;;;;;5073998;28;20115;-66
2023/01/09 12:05:45;;;;;;;2.05;0.20;;;8.80;99.90;;;;;;5074796;28;20021;-66
2023/01/09 12:08:38;;;;;;;1.00;0.20;;;8.90;99.90;;;;;;5074702;28;20024;-67
2023/01/09 12:11:12;;;;;;;0.30;0.30;;;8.90;99.90;;;;;;5073372;28;20060;-67
2023/01/09 12:14:06;;;;;;;0.47;0.20;;;8.90;99.90;;;;;;5074563;28;20032;-66
2023/01/09 12:16:37;;;;;;;2.28;0.40;;;8.90;99.90;;;;;;5074595;28;20055;-67
2023/01/09 12:19:19;;;;;;;3.22;1.10;;;8.90;99.90;;;;;;5074544;28;20020;-67
2023/01/09 12:21:55;;;;;;;0.73;0.35;;;8.90;99.90;;;;;;5074659;28;20021;-67
2023/01/09 12:24:59;;;;;;;2.47;0.30;;;8.90;99.90;;;;;;5073246;28;20028;-67
2023/01/09 12:27:46;;;;;;;2.67;0.50;;;8.90;99.90;;;;;;5027604;28;20028;-67
2023/01/09 12:30:14;;;;;;;1.40;0.30;;;9.10;99.90;;;;;;5072924;28;20032;-67
2023/01/09 12:33:19;;;;;;;2.13;0.20;;;9.20;99.90;;;;;;5073415;28;20021;-67
2023/01/09 12:36:17;;;;;;;1.10;0.40;;;9.20;99.90;;;;;;5074154;28;20066;-67
2023/01/09 12:38:58;;;;;;;0.75;0.30;;;9.20;99.90;;;;;;4976481;28;20097;-67
2023/01/09 12:41:51;;;;;;;1.67;0.20;;;9.10;99.90;;;;;;4977428;28;20022;-67
2023/01/09 12:44:33;;;;;;;1.08;0.40;;;9.10;99.90;;;;;;4992889;28;20031;-67
2023/01/09 12:47:11;;;;;;;0.65;0.30;;;9.10;99.90;;;;;;4992763;28;20035;-67
2023/01/09 12:49:56;;;;;;;1.63;0.40;;;9.10;99.90;;;;;;4977147;28;20050;-67
2023/01/09 12:52:30;;;;;;;0.73;0.40;;;9.20;99.90;;;;;;4992812;28;20030;-67
2023/01/09 12:55:07;;;;;;;0.43;0.22;;;9.30;99.90;;;;;;4976135;28;20133;-67
2023/01/09 12:57:41;;;;;;;2.63;0.40;;;9.40;99.90;;;;;;4976694;28;20121;-67
2023/01/09 13:00:34;;;;;;;1.00;0.20;;;9.40;99.90;;;;;;4992480;28;20122;-67
2023/01/09 13:03:03;;;;;;;1.52;0.40;;;9.40;99.90;;;;;;4964599;28;20038;-67
2023/01/09 13:05:34;;;;;;;0.52;0.30;;;9.40;99.90;;;;;;4976119;28;20029;-67
2023/01/09 13:08:05;;;;;;;0.50;0.25;;;9.30;99.90;;;;;;4976050;28;20041;-67
2023/01/09 13:10:37;;;;;;;2.13;0.38;;;9.30;99.90;;;;;;4992547;28;20040;-67
2023/01/09 13:13:17;;;;;;;1.38;0.20;;;9.30;99.90;;;;;;4975780;28;20069;-66
2023/01/09 13:15:57;;;;;;;3.65;0.30;;;9.30;99.90;;;;;;5048187;28;20132;-66
2023/01/09 13:18:40;;;;;;;3.70;0.43;;;9.20;99.90;;;;;;5072064;28;20031;-67
2023/01/09 13:21:07;;;;;;;1.45;0.30;;;9.20;99.90;;;;;;5073635;28;20086;-67
2023/01/09 13:23:59;;;;;;;1.02;0.40;;;9.20;99.90;;;;;;5073383;28;20025;-67
2023/01/09 13:26:28;;;;;;;;;;;9.10;99.90;;;;;;5073015;28;20111;-67
2023/01/09 13:28:59;;;;;;;0.30;0.25;;;9.10;99.90;;;;;;5073245;28;19911;-67
2023/01/09 13:31:37;;;;;;;1.67;0.30;;;9.20;99.90;;;;;;5074031;28;20031;-67
2023/01/09 13:34:08;;;;;;;1.65;0.40;;;9.20;99.90;;;;;;5073149;28;20024;-67
2023/01/09 13:36:44;;;;;;;1.00;0.20;;;9.10;99.90;;;;;;5073809;28;20028;-67